createdAt,value
2019-01-26T00:01:54.072Z,1.71
2019-01-26T00:04:27.528Z,1.73
2019-01-26T00:07:01.458Z,1.67
2019-01-26T00:09:34.826Z,1.73
2019-01-26T00:12:08.670Z,1.69
2019-01-26T00:14:41.482Z,1.73
2019-01-26T00:17:14.940Z,1.79
2019-01-26T00:19:48.635Z,1.78
2019-01-26T00:22:22.350Z,1.79
2019-01-26T00:24:55.335Z,1.73
2019-01-26T00:27:28.760Z,1.81
2019-01-26T00:30:01.834Z,1.84
2019-01-26T00:32:35.640Z,1.84
2019-01-26T00:35:08.120Z,1.87
2019-01-26T00:37:41.256Z,1.96
2019-01-26T00:40:15.981Z,2.04
2019-01-26T00:42:49.411Z,1.98
2019-01-26T00:45:22.926Z,2.02
2019-01-26T00:47:56.216Z,2.00
2019-01-26T00:50:29.706Z,2.04
2019-01-26T00:53:03.515Z,2.14
2019-01-26T00:55:36.662Z,2.10
2019-01-26T00:58:10.517Z,2.17
2019-01-26T01:00:43.992Z,2.23
2019-01-26T01:03:17.103Z,2.24
2019-01-26T01:05:53.058Z,2.32
2019-01-26T01:08:25.955Z,2.23
2019-01-26T01:10:59.300Z,2.34
2019-01-26T01:13:33.075Z,2.33
2019-01-26T01:16:06.195Z,2.39
2019-01-26T01:18:39.530Z,2.43
2019-01-26T01:21:12.967Z,2.38
2019-01-26T01:23:46.645Z,2.41
2019-01-26T01:26:20.124Z,2.44
2019-01-26T01:28:53.532Z,2.46
2019-01-26T01:31:27.167Z,2.45
2019-01-26T01:34:00.895Z,2.48
2019-01-26T01:36:34.346Z,2.48
2019-01-26T01:39:08.444Z,2.47
2019-01-26T01:41:41.456Z,2.57
2019-01-26T01:44:15.036Z,2.52
2019-01-26T01:46:48.846Z,2.48
2019-01-26T01:49:21.636Z,2.54
2019-01-26T01:51:55.297Z,2.56
2019-01-26T01:54:28.637Z,2.62
2019-01-26T01:57:02.029Z,2.63
2019-01-26T01:59:34.994Z,2.66
2019-01-26T02:02:08.539Z,2.72
2019-01-26T02:04:41.530Z,2.68
2019-01-26T02:07:14.998Z,2.70
2019-01-26T02:09:50.455Z,2.80
2019-01-26T02:12:23.044Z,2.75
2019-01-26T02:14:56.534Z,2.77
2019-01-26T02:17:29.631Z,2.84
2019-01-26T02:20:03.459Z,2.99
2019-01-26T02:22:36.826Z,2.94
2019-01-26T02:25:10.310Z,2.98
2019-01-26T02:27:43.917Z,2.96
2019-01-26T02:30:18.715Z,3.04
2019-01-26T02:32:52.497Z,3.00
2019-01-26T02:35:26.357Z,2.99
2019-01-26T02:37:59.382Z,3.13
2019-01-26T02:40:32.760Z,3.10
2019-01-26T02:43:05.626Z,3.04
2019-01-26T02:45:38.612Z,3.09
2019-01-26T02:48:10.782Z,3.15
2019-01-26T02:50:43.786Z,3.12
2019-01-26T02:53:17.069Z,3.22
2019-01-26T02:55:50.356Z,3.21
2019-01-26T02:58:23.779Z,3.10
2019-01-26T03:00:57.091Z,3.16
2019-01-26T03:03:30.249Z,3.18
2019-01-26T03:06:03.626Z,3.22
2019-01-26T03:08:36.522Z,3.28
2019-01-26T03:11:09.531Z,3.19
2019-01-26T03:13:42.495Z,3.24
2019-01-26T03:16:15.962Z,3.20
2019-01-26T03:18:49.455Z,3.17
2019-01-26T03:21:22.867Z,3.26
2019-01-26T03:23:55.641Z,3.26
2019-01-26T03:26:29.872Z,3.25
2019-01-26T03:29:04.242Z,3.21
2019-01-26T03:31:37.526Z,3.27
2019-01-26T03:34:10.417Z,3.32
2019-01-26T03:36:43.789Z,3.40
2019-01-26T03:39:17.207Z,3.36
2019-01-26T03:41:49.398Z,3.33
2019-01-26T03:44:22.973Z,3.45
2019-01-26T03:46:56.619Z,3.44
2019-01-26T03:49:30.078Z,3.52
2019-01-26T03:52:03.555Z,3.54
2019-01-26T03:54:36.524Z,3.56
2019-01-26T03:57:09.629Z,3.64
2019-01-26T03:59:43.534Z,3.67
2019-01-26T04:02:16.656Z,3.76
2019-01-26T04:04:52.069Z,3.80
2019-01-26T04:07:24.671Z,3.83
2019-01-26T04:09:58.350Z,3.91
2019-01-26T04:12:31.481Z,3.92
2019-01-26T04:15:05.362Z,3.96
2019-01-26T04:17:38.539Z,4.02
2019-01-26T04:20:13.804Z,3.99
2019-01-26T04:22:47.368Z,3.98
2019-01-26T04:25:20.387Z,4.03
2019-01-26T04:27:54.259Z,4.01
2019-01-26T04:30:27.484Z,4.00
2019-01-26T04:32:59.742Z,3.97
2019-01-26T04:35:33.403Z,4.03
2019-01-26T04:38:06.755Z,4.04
2019-01-26T04:40:40.166Z,4.03
2019-01-26T04:43:13.439Z,4.07
2019-01-26T04:45:47.251Z,4.05
2019-01-26T04:48:20.860Z,4.03
2019-01-26T04:50:54.158Z,4.15
2019-01-26T04:53:27.592Z,4.13
2019-01-26T04:56:01.033Z,4.17
2019-01-26T04:58:34.037Z,4.22
2019-01-26T05:01:06.620Z,4.23
2019-01-26T05:03:39.711Z,4.29
2019-01-26T05:06:13.407Z,4.27
2019-01-26T05:08:48.410Z,4.36
2019-01-26T05:11:21.417Z,4.35
2019-01-26T05:13:54.423Z,4.35
2019-01-26T05:16:27.500Z,4.39
2019-01-26T05:19:00.955Z,4.43
2019-01-26T05:21:34.013Z,4.48
2019-01-26T05:24:07.009Z,4.47
2019-01-26T05:26:39.678Z,4.50
2019-01-26T05:29:13.767Z,4.50
2019-01-26T05:31:46.857Z,4.53
2019-01-26T05:34:19.850Z,4.50
2019-01-26T05:36:52.453Z,4.53
2019-01-26T05:39:25.834Z,4.53
2019-01-26T05:41:59.404Z,4.56
2019-01-26T05:44:33.226Z,4.64
2019-01-26T05:47:06.645Z,4.58
2019-01-26T05:49:40.170Z,4.64
2019-01-26T05:52:12.976Z,4.70
2019-01-26T05:54:46.245Z,4.74
2019-01-26T05:57:19.600Z,4.74
2019-01-26T05:59:53.536Z,4.74
2019-01-26T06:02:27.367Z,4.76
2019-01-26T06:05:00.301Z,4.77
2019-01-26T06:07:33.291Z,4.77
2019-01-26T06:10:05.993Z,4.78
2019-01-26T06:12:39.605Z,4.81
2019-01-26T06:15:13.088Z,4.78
2019-01-26T06:17:46.368Z,4.82
2019-01-26T06:20:20.814Z,4.88
2019-01-26T06:22:53.673Z,4.88
2019-01-26T06:25:27.271Z,4.91
2019-01-26T06:28:00.726Z,4.90
2019-01-26T06:30:34.409Z,5.00
2019-01-26T06:33:07.383Z,5.07
2019-01-26T06:35:40.370Z,5.03
2019-01-26T06:38:13.443Z,5.08
2019-01-26T06:40:46.764Z,5.11
2019-01-26T06:43:20.582Z,5.13
2019-01-26T06:45:53.686Z,5.11
2019-01-26T06:48:27.144Z,5.15
2019-01-26T06:51:00.646Z,5.19
2019-01-26T06:53:33.992Z,5.23
2019-01-26T06:56:06.936Z,5.19
2019-01-26T06:58:39.921Z,5.19
2019-01-26T07:01:12.897Z,5.30
2019-01-26T07:03:46.139Z,5.35
2019-01-26T07:06:26.553Z,5.35
2019-01-26T07:08:59.559Z,5.36
2019-01-26T07:11:32.222Z,5.36
2019-01-26T07:14:05.328Z,5.39
2019-01-26T07:16:37.894Z,5.42
2019-01-26T07:19:11.425Z,5.43
2019-01-26T07:21:45.333Z,5.41
2019-01-26T07:24:18.435Z,5.44
2019-01-26T07:26:52.090Z,5.38
2019-01-26T07:29:25.617Z,5.36
2019-01-26T07:31:58.979Z,5.39
2019-01-26T07:34:32.391Z,5.40
2019-01-26T07:37:05.468Z,5.43
2019-01-26T07:39:38.830Z,5.54
2019-01-26T07:42:11.564Z,5.58
2019-01-26T07:44:44.839Z,5.51
2019-01-26T07:47:18.860Z,5.61
2019-01-26T07:49:54.511Z,5.64
2019-01-26T07:52:27.505Z,5.60
2019-01-26T07:55:01.963Z,5.62
2019-01-26T07:57:35.313Z,5.64
2019-01-26T08:00:11.923Z,5.59
2019-01-26T08:02:44.933Z,5.60
2019-01-26T08:05:18.193Z,5.65
2019-01-26T08:07:52.407Z,5.69
2019-01-26T08:10:25.838Z,5.64
2019-01-26T08:12:58.872Z,5.69
2019-01-26T08:15:34.118Z,5.71
2019-01-26T08:18:08.223Z,5.72
2019-01-26T08:20:41.240Z,5.68
2019-01-26T08:23:14.599Z,5.72
2019-01-26T08:25:47.580Z,5.73
2019-01-26T08:28:20.794Z,5.77
2019-01-26T08:30:53.789Z,5.70
2019-01-26T08:33:26.995Z,5.81
2019-01-26T08:36:00.878Z,5.74
2019-01-26T08:38:34.189Z,5.73
2019-01-26T08:41:07.530Z,5.77
2019-01-26T08:43:40.676Z,5.70
2019-01-26T08:46:14.246Z,5.69
2019-01-26T08:48:47.811Z,5.80
2019-01-26T08:56:18.123Z,5.56
